aviador You're here:

KNUW Decoded Metar

WHIDBEY ISLAND in WA, USA
Report Time2018-05-21 23:56:00
UTC Time2018-05-22 00:32:46
Flight Rules vfr VFR
Wind270° at 07 kt
W.Decomp.*RWY 25: 7.0 kt HW 0.2 kt RCW
RWY 32: 2.6 kt HW 6.5 kt LCW
W.Rank270° ranks 10
Current wind is below 270° avg. (9.9)
Visibility9999 m
Phenomena:N/A
Clouds:Few 035 Hf
Few 047 Hf
Scattered 090 Hf
Scattered 250 Hf
Expected CloudBase > 2,000 ft AGL from Temp-Dew spread
CeilingNone
Temp15°C (ISA 0)
Dew Point10°C (72% RH)
AAT12.5°C
QNH1019 hPa
Density Alt20 ft
Elevation46 ft
Report Wrong Elevation
Raw Report
KNUW 212356Z 27007KT 10SM FEW035 FEW047 SCT090 SCT250 15/10 A3008
RMK SLP185 T01500100 10167 20139 58010=

Extra information for KNUW:More info

Metar Taf Metar & Taf Last 4 Metars F.Rules Stats Wind Profile Meteogram Temp Stats Airport Information Weather charts Add Link Nearby VenuesMetar ALERT Operation Metar Decoded Social comments

AIRNAV info for KNUW